Terminal Aerodrome Forecast
Issued by NWS

Home | Current Version | Previous Version | Text Only | Print | Product List | Glossary On
Versions: 1 2 3 4 5 6 7 8 9 10 11 12 13 14 15 16
000
FTAK31 PAJN 231400 AAA
TAFAJN
TAF AMD
PAJN 231429Z 2314/2412 12011KT P6SM -SHRA FEW012 BKN030 OVC040
     FM232100 14007KT P6SM -SHRA SCT015 BKN035 OVC045
     FM240600 08004KT P6SM VCSH SCT015 OVC040=

USA.gov is the U.S. government's official web portal to all federal, state and local government web resources and services.